KCIC/CIC METAR and TAF weather

Enter ICAO airport designator
Station Type Date Time Source
KCIC METAR 2019/04/19 21:47 UTC NOAA

KCIC 192147Z 18008KT 25SM FEW080 BKN200 27/08 A2985


Station Type Date Time Source
KCIC Decoded METAR 2019/04/19 21:47 UTC NOAA

Chico Municipal , CA, United States (KCIC) 39-48N 121-51W
Apr 19, 2019 - 05:47 PM EDT / 2019.04.19 2147 UTC
Wind: from the S (180 degrees) at 9 MPH (8 KT):0
Visibility: 25 mile(s):0
Sky conditions: mostly cloudy
Temperature: 80 F (27 C)
Dew Point: 46 F (8 C)
Relative Humidity: 30%
Pressure (altimeter): 29.85 in. Hg (1010 hPa)
ob: KCIC 192147Z 18008KT 25SM FEW080 BKN200 27/08 A2985
cycle: 22

Station Type Date Time Source
KCIC TAF UTC NOAA

Error!

Example: see airport list